Pueblo Of Acoma, New Mexico
Current Conditions -  °F | °C
As of 11:38 AM on Thursday 30 Oct 2014 (Local Time) from KGNT Reporting Station
Clear Clear  
Wind Chill: 16°   Ceiling: Unl
Heat Index: 16°   Visibility: 10mi
Dew Point: -11°   Wind: 6mph
Humidity: 15%   Direction: 10°N
Pressure: 30.4"   Gusts: NA
Location:  35.08°N, 107.6°W
Report Text: KGNT 301738Z AUTO 01005KT 10SM CLR 16/M11 A3040 RMK AO2
Loading
Personal Weather Stations






























Interactive Weather Map
Tropical Storm Tracking
New forecast layout! Learn more

10-Day Weather Forecast

Advertisements
Track Severe Weather on mobile